ROK weather

Rockhampton Airport
Rockhampton, Queensland, Australia

Public forecast

Using degrees Celsius for public forecast. Weather courtesy of forecast.io.

METAR (pilot weather report)

Retrieved 2018/02/25 19:00 UTC (20 minutes ago):

YBRK 251900Z AUTO 35006KT 340V070 9999 // BKN019 25/23 Q1005

TAF (pilot weather forecast)

Retrieved 2018/02/25 18:57 UTC (23 minutes ago):

TAF TAF YBRK 251745Z 2518/2618 VRB03KT 9999 SCT013 FM252200 35008KT 9999 -SHRA SCT020 SCT035 FM260200 03010KT 9999 -SHRA SCT025 SCT040 FM261000 VRB04KT 9999 SCT015 TEMPO 2518/2522 9999 NSW BKN012 INTER 2600/2610 3000 SHRA BKN012 PROB30 2518/2521 0500 FG PROB30 TEMPO 2604/2610 VRB20G35KT 2000 TSRA BKN010 SCT040CB